Time;durP1;ratioP1;P1;durP2;ratioP2;P2;SDS_P1;SDS_P2;PMS_P1;PMS_P2;Temp;Humidity;BMP_temperature;BMP_pressure;BME280_temperature;BME280_humidity;BME280_pressure;Samples;Min_cycle;Max_cycle;Signal;HPM_P1;HPM_P2
2021/08/19 00:00:49;;;;;;;9.13;2.78;;;;;;;25.19;50.49;101193.13;5013647;28;20030;-61
2021/08/19 00:03:14;;;;;;;7.22;2.53;;;;;;;25.17;50.72;101197.97;5014664;28;20079;-62
2021/08/19 00:05:40;;;;;;;6.40;2.63;;;;;;;25.16;50.54;101191.66;5014149;28;20053;-62
2021/08/19 00:08:05;;;;;;;5.53;3.30;;;;;;;25.17;49.97;101192.50;5014896;28;20112;-61
2021/08/19 00:10:31;;;;;;;8.90;2.88;;;;;;;25.15;50.39;101187.25;5015105;28;20026;-61
2021/08/19 00:12:58;;;;;;;5.85;2.47;;;;;;;25.13;50.23;101169.28;5014043;28;20026;-61
2021/08/19 00:15:24;;;;;;;6.20;2.78;;;;;;;25.16;50.46;101179.81;5014771;28;20159;-61
2021/08/19 00:17:49;;;;;;;6.40;2.70;;;;;;;25.17;50.48;101181.53;5014305;28;20096;-61
2021/08/19 00:20:14;;;;;;;6.97;2.70;;;;;;;25.16;50.08;101177.94;4997082;28;20037;-61
2021/08/19 00:22:40;;;;;;;4.97;2.50;;;;;;;25.15;50.39;101175.44;5014343;28;20077;-61
2021/08/19 00:25:06;;;;;;;3.35;2.30;;;;;;;25.16;50.67;101179.81;5013862;28;20041;-61
2021/08/19 00:27:31;;;;;;;3.63;2.60;;;;;;;25.09;50.58;101162.56;5014203;28;20088;-61
2021/08/19 00:29:57;;;;;;;7.90;2.63;;;;;;;25.15;50.63;101172.69;4980230;28;20359;-61
2021/08/19 00:32:23;;;;;;;5.55;2.45;;;;;;;25.16;49.80;101168.84;5014577;28;20084;-61
2021/08/19 00:34:48;;;;;;;4.90;2.05;;;;;;;25.16;50.58;101166.13;5013931;28;20034;-61
2021/08/19 00:37:13;;;;;;;5.30;2.78;;;;;;;25.16;50.64;101157.88;5013832;28;20026;-61
2021/08/19 00:39:39;;;;;;;4.65;2.50;;;;;;;25.16;50.58;101164.22;5014367;28;20026;-61
2021/08/19 00:42:08;;;;;;;7.68;2.53;;;;;;;25.15;50.74;101162.56;5013780;28;20149;-61
2021/08/19 00:44:33;;;;;;;3.85;2.40;;;;;;;25.17;50.64;101159.59;5013777;28;20053;-62
2021/08/19 00:46:58;;;;;;;7.05;2.47;;;;;;;25.15;50.31;101156.22;5013661;28;20033;-61
2021/08/19 00:49:24;;;;;;;8.32;2.97;;;;;;;25.19;50.14;101158.31;5013916;28;20072;-61
2021/08/19 00:51:53;;;;;;;7.47;2.67;;;;;;;25.19;50.32;101158.31;5013967;28;20340;-61
2021/08/19 00:54:27;;;;;;;6.15;2.97;;;;;;;25.18;50.31;101153.06;5014017;28;20021;-61
2021/08/19 00:56:57;;;;;;;7.32;2.78;;;;;;;25.16;50.48;101149.66;5013901;28;20064;-61
2021/08/19 00:59:24;;;;;;;6.32;2.80;;;;;;;25.16;50.71;101152.41;5013754;28;20061;-61
2021/08/19 01:01:51;;;;;;;8.80;3.00;;;;;;;25.16;51.03;101152.41;5013658;28;20064;-62
2021/08/19 01:04:17;;;;;;;4.75;2.80;;;;;;;25.16;50.13;101152.41;4995983;28;20118;-61
2021/08/19 01:06:42;;;;;;;5.88;2.80;;;;;;;25.16;50.54;101146.91;5013762;28;20061;-62
2021/08/19 01:09:08;;;;;;;7.47;3.60;;;;;;;25.20;50.14;101148.19;5013413;28;20030;-62
2021/08/19 01:11:34;;;;;;;6.07;2.92;;;;;;;25.17;50.20;101148.63;4996106;28;20116;-62
2021/08/19 01:14:00;;;;;;;5.50;3.28;;;;;;;25.14;50.33;101146.31;4996198;28;20034;-61
2021/08/19 01:16:25;;;;;;;3.90;2.50;;;;;;;25.11;50.62;101146.75;5013469;28;20170;-61
2021/08/19 01:18:51;;;;;;;4.32;2.90;;;;;;;25.12;50.69;101152.03;5013445;28;20038;-61
2021/08/19 01:21:16;;;;;;;6.55;2.65;;;;;;;25.10;50.13;101139.59;4996065;28;20117;-61
2021/08/19 01:23:43;;;;;;;3.40;2.65;;;;;;;25.07;50.77;101153.72;5013847;28;20029;-62
2021/08/19 01:26:12;;;;;;;7.82;3.25;;;;;;;25.09;50.25;101146.97;4995885;28;20033;-61
2021/08/19 01:28:38;;;;;;;6.15;2.60;;;;;;;25.08;50.87;101149.91;5013912;28;20029;-61
2021/08/19 01:31:05;;;;;;;6.38;2.70;;;;;;;25.07;50.41;101131.78;4996039;28;20101;-61
2021/08/19 01:33:31;;;;;;;7.43;3.20;;;;;;;25.09;50.52;101141.47;5013173;28;20037;-61
2021/08/19 01:35:57;;;;;;;6.38;3.55;;;;;;;25.08;50.35;101141.69;5013562;28;20026;-61
2021/08/19 01:38:34;;;;;;;5.97;2.92;;;;;;;25.07;50.77;101140.03;5015671;28;20394;-62
2021/08/19 01:40:59;;;;;;;6.75;3.97;;;;;;;25.08;50.23;101142.53;5017160;28;20026;-61
2021/08/19 01:43:27;;;;;;;7.78;2.83;;;;;;;25.06;50.75;101141.06;5017148;28;20041;-61
2021/08/19 01:46:00;;;;;;;5.72;2.80;;;;;;;25.05;50.78;101144.84;5017132;28;20463;-61
2021/08/19 01:48:26;;;;;;;5.35;2.60;;;;;;;25.03;50.64;101149.72;5017052;28;20029;-61
2021/08/19 01:50:52;;;;;;;5.60;2.88;;;;;;;25.02;50.58;101140.66;4999164;28;20068;-61
2021/08/19 01:53:18;;;;;;;7.35;2.60;;;;;;;25.04;50.47;101143.19;5016901;28;20025;-61
2021/08/19 01:55:44;;;;;;;5.90;2.20;;;;;;;25.00;50.67;101131.81;5017134;28;20026;-61
2021/08/19 01:58:10;;;;;;;8.27;2.65;;;;;;;25.01;50.44;101132.66;5016839;28;20356;-62
2021/08/19 02:00:36;;;;;;;5.10;2.72;;;;;;;25.04;50.60;101135.81;5017264;28;20573;-62
2021/08/19 02:03:02;;;;;;;9.60;2.42;;;;;;;25.03;50.09;101142.34;5017267;28;20053;-61
2021/08/19 02:05:28;;;;;;;3.50;2.58;;;;;;;25.00;50.27;101133.69;5016482;28;20104;-61
2021/08/19 02:07:53;;;;;;;7.68;2.50;;;;;;;24.97;50.58;101126.75;4999496;28;20042;-61
2021/08/19 02:10:19;;;;;;;8.93;2.50;;;;;;;25.01;50.75;101132.66;5016737;28;20030;-61
2021/08/19 02:12:45;;;;;;;4.82;2.35;;;;;;;25.01;50.62;101138.13;5016246;28;20493;-62
2021/08/19 02:15:11;;;;;;;6.20;2.92;;;;;;;25.02;50.40;101139.81;5016242;28;20037;-61
2021/08/19 02:17:36;;;;;;;4.13;2.42;;;;;;;24.99;50.53;101145.72;5016810;28;20033;-62
2021/08/19 02:20:02;;;;;;;4.13;2.50;;;;;;;24.97;50.58;101131.38;4998643;28;20030;-61
2021/08/19 02:22:28;;;;;;;3.92;2.58;;;;;;;24.96;50.34;101140.69;5016429;28;20030;-61
2021/08/19 02:24:53;;;;;;;9.52;2.17;;;;;;;24.95;50.26;101139.00;5016423;28;20060;-62
2021/08/19 02:27:18;;;;;;;3.60;2.30;;;;;;;24.94;50.67;101138.16;5016107;28;20029;-61
2021/08/19 02:29:44;;;;;;;3.15;1.88;;;;;;;24.92;50.07;101143.00;5016339;28;20076;-61
2021/08/19 02:32:09;;;;;;;6.60;2.80;;;;;;;24.92;50.51;101144.91;4998327;28;20069;-61
2021/08/19 02:34:34;;;;;;;6.60;2.42;;;;;;;24.90;50.27;101143.22;5016163;28;20033;-61
2021/08/19 02:37:00;;;;;;;3.30;1.88;;;;;;;24.91;50.12;101146.78;5015984;28;20109;-61
2021/08/19 02:39:25;;;;;;;3.50;2.30;;;;;;;24.92;50.46;101139.41;5015869;28;20088;-61
2021/08/19 02:41:50;;;;;;;6.47;2.28;;;;;;;24.93;50.35;101146.59;4998624;28;20068;-61
2021/08/19 02:44:16;;;;;;;3.75;2.85;;;;;;;24.94;50.13;101135.41;5015744;28;20120;-61
2021/08/19 02:46:41;;;;;;;4.10;2.00;;;;;;;24.95;50.24;101136.25;5015993;28;20037;-61
2021/08/19 02:49:07;;;;;;;3.35;2.33;;;;;;;24.90;50.42;101129.50;5014723;28;20030;-61
2021/08/19 02:51:32;;;;;;;4.15;2.22;;;;;;;24.93;50.50;101135.63;5015947;28;20099;-61
2021/08/19 02:53:57;;;;;;;6.80;2.13;;;;;;;24.92;50.35;101134.78;5015602;28;20026;-61
2021/08/19 02:56:23;;;;;;;2.92;2.03;;;;;;;24.91;49.84;101127.59;4998687;28;20080;-62
2021/08/19 02:58:49;;;;;;;3.80;2.15;;;;;;;24.90;50.38;101124.03;4998070;28;20100;-61
2021/08/19 03:01:14;;;;;;;4.35;2.45;;;;;;;24.90;50.40;101124.03;4997910;28;20041;-61
2021/08/19 03:03:39;;;;;;;5.30;2.20;;;;;;;24.87;50.31;101124.44;4998093;28;20419;-62
2021/08/19 03:06:05;;;;;;;3.63;2.65;;;;;;;24.87;49.99;101118.97;5015358;28;20085;-62
2021/08/19 03:08:30;;;;;;;4.13;2.30;;;;;;;24.86;50.68;101125.53;5015572;28;20565;-61
2021/08/19 03:10:56;;;;;;;3.63;2.38;;;;;;;24.82;50.35;101124.25;5015558;28;20474;-61
2021/08/19 03:13:21;;;;;;;8.57;2.72;;;;;;;24.82;50.00;101129.75;4997666;28;20062;-61
2021/08/19 03:15:46;;;;;;;5.60;1.85;;;;;;;24.83;50.48;101128.69;5015936;28;20030;-61
2021/08/19 03:18:12;;;;;;;6.82;2.13;;;;;;;24.83;50.44;101125.94;4997599;28;20034;-61
2021/08/19 03:20:37;;;;;;;5.15;2.40;;;;;;;24.82;50.51;101118.78;4997581;28;20466;-61
2021/08/19 03:23:02;;;;;;;5.78;2.85;;;;;;;24.82;50.77;101113.28;5015663;28;20118;-61
2021/08/19 03:25:28;;;;;;;6.20;2.50;;;;;;;24.80;50.16;101112.69;4997425;28;20022;-61
2021/08/19 03:28:00;;;;;;;7.63;2.22;;;;;;;24.81;50.07;101117.13;5015143;28;20426;-61
2021/08/19 03:30:26;;;;;;;5.65;3.47;;;;;;;24.82;50.80;101112.44;5015173;28;20061;-61
2021/08/19 03:32:52;;;;;;;5.35;2.28;;;;;;;24.81;49.92;101122.59;5015134;28;20475;-61
2021/08/19 03:35:17;;;;;;;7.35;2.85;;;;;;;24.83;50.74;101114.13;5015136;28;20036;-62
2021/08/19 03:37:42;;;;;;;6.65;2.50;;;;;;;24.82;50.21;101120.66;5014717;28;20504;-61
2021/08/19 03:40:09;;;;;;;4.65;2.35;;;;;;;24.81;50.71;101119.84;5015039;28;20044;-61
2021/08/19 03:42:35;;;;;;;6.68;2.47;;;;;;;24.80;50.78;101120.91;4997180;28;20032;-61
2021/08/19 03:45:00;;;;;;;3.88;1.98;;;;;;;24.79;50.73;101116.47;5014847;28;20105;-61
2021/08/19 03:47:26;;;;;;;6.60;2.50;;;;;;;24.76;50.41;101110.56;4997059;28;20393;-61
2021/08/19 03:49:53;;;;;;;2.58;2.00;;;;;;;24.76;50.42;101114.13;5015214;28;20077;-62
2021/08/19 03:52:18;;;;;;;6.32;2.83;;;;;;;24.78;50.24;101102.94;5014652;28;20030;-61
2021/08/19 03:54:44;;;;;;;5.40;2.47;;;;;;;24.75;50.76;101117.94;4996919;28;20475;-62
2021/08/19 03:57:09;;;;;;;8.73;2.63;;;;;;;24.73;50.40;101114.56;4996863;28;20025;-61
2021/08/19 03:59:34;;;;;;;4.00;2.58;;;;;;;24.72;50.97;101114.78;5014587;28;20061;-62
2021/08/19 04:02:00;;;;;;;4.53;2.35;;;;;;;24.72;50.34;101118.34;5014065;28;20025;-61
2021/08/19 04:04:25;;;;;;;4.53;2.17;;;;;;;24.73;50.22;101117.31;5014152;28;20062;-61
2021/08/19 04:06:51;;;;;;;3.95;2.88;;;;;;;24.72;50.32;101121.09;4980427;28;20036;-61
2021/08/19 04:09:16;;;;;;;7.57;3.45;;;;;;;24.73;50.67;101125.53;5014539;28;20037;-62
2021/08/19 04:11:42;;;;;;;7.65;2.78;;;;;;;24.72;50.94;101123.84;4996919;28;20091;-61
2021/08/19 04:14:07;;;;;;;7.00;3.38;;;;;;;24.72;50.65;101117.50;5014502;28;20076;-61
2021/08/19 04:16:32;;;;;;;3.60;2.42;;;;;;;24.72;49.97;101112.88;5014357;28;20156;-61
2021/08/19 04:18:58;;;;;;;9.32;3.33;;;;;;;24.72;50.15;101103.81;5014381;28;20466;-61
2021/08/19 04:21:23;;;;;;;6.63;2.90;;;;;;;24.71;50.12;101116.66;5014645;28;20437;-61
2021/08/19 04:23:48;;;;;;;6.53;3.25;;;;;;;24.73;50.42;101114.56;5014274;28;20032;-61
2021/08/19 04:26:14;;;;;;;8.35;3.08;;;;;;;24.72;50.22;101115.63;4996753;28;20031;-61
2021/08/19 04:28:39;;;;;;;7.18;2.95;;;;;;;24.68;50.29;101111.59;5014004;28;20112;-61
2021/08/19 04:31:05;;;;;;;4.95;2.80;;;;;;;24.68;50.79;101106.13;4996423;28;20116;-61
2021/08/19 04:33:31;;;;;;;5.90;3.80;;;;;;;24.68;50.84;101108.88;5014304;28;20034;-61
2021/08/19 04:35:57;;;;;;;6.43;3.10;;;;;;;24.69;50.83;101117.94;5014191;28;20022;-61
2021/08/19 04:38:22;;;;;;;6.30;3.22;;;;;;;24.67;50.32;101120.91;5013964;28;20022;-61
2021/08/19 04:40:47;;;;;;;5.97;2.97;;;;;;;24.66;50.81;101124.69;5013753;28;20467;-61
2021/08/19 04:43:13;;;;;;;11.18;3.40;;;;;;;24.60;50.02;101119.22;4979838;28;20030;-61
2021/08/19 04:45:38;;;;;;;4.57;3.15;;;;;;;24.66;50.85;101116.47;5013789;28;20032;-62
2021/08/19 04:48:04;;;;;;;5.20;3.40;;;;;;;24.66;50.84;101124.69;5013782;28;20041;-61
2021/08/19 04:50:29;;;;;;;4.80;3.17;;;;;;;24.66;50.74;101121.94;5013412;28;20041;-61
2021/08/19 04:52:55;;;;;;;5.22;2.85;;;;;;;24.68;50.26;101119.84;5013403;28;20034;-62
2021/08/19 04:55:20;;;;;;;7.20;3.33;;;;;;;24.68;50.69;101117.09;5013590;28;20030;-61
2021/08/19 04:57:45;;;;;;;7.60;3.75;;;;;;;24.66;50.51;101108.25;4979855;28;20030;-61
2021/08/19 05:00:12;;;;;;;7.25;2.80;;;;;;;24.64;50.24;101113.13;4979784;28;20161;-61
2021/08/19 05:02:37;;;;;;;6.82;3.30;;;;;;;24.67;50.96;101120.91;5013811;28;20041;-61
2021/08/19 05:05:03;;;;;;;4.18;2.88;;;;;;;24.63;50.70;101114.16;5013452;28;20049;-61
2021/08/19 05:07:30;;;;;;;4.57;2.85;;;;;;;24.63;50.93;101116.91;5014082;28;20026;-61
2021/08/19 05:09:56;;;;;;;4.38;2.90;;;;;;;24.70;51.02;101133.34;5013867;28;20026;-61
2021/08/19 05:12:21;;;;;;;5.97;3.17;;;;;;;24.72;50.71;101128.47;5014536;28;20026;-61
2021/08/19 05:14:46;;;;;;;7.28;3.55;;;;;;;24.74;50.47;101138.16;5017739;28;20025;-61
2021/08/19 05:17:12;;;;;;;6.38;3.50;;;;;;;24.73;50.44;101135.66;5017376;28;20088;-61
2021/08/19 05:19:37;;;;;;;3.95;3.30;;;;;;;24.75;50.28;101131.63;5000432;28;20434;-61
2021/08/19 05:22:03;;;;;;;7.40;3.25;;;;;;;24.75;50.55;101128.91;5000268;28;20028;-61
2021/08/19 05:24:28;;;;;;;5.40;3.05;;;;;;;24.75;50.23;101133.53;5017277;28;20030;-61
2021/08/19 05:26:53;;;;;;;6.10;3.53;;;;;;;24.76;50.48;101137.97;5017512;28;20534;-62
2021/08/19 05:29:19;;;;;;;5.40;3.03;;;;;;;24.77;49.58;101148.69;4999493;28;20052;-61
2021/08/19 05:31:44;;;;;;;10.75;3.10;;;;;;;24.79;50.34;101141.13;5014018;28;20129;-61
2021/08/19 05:34:09;;;;;;;5.97;2.83;;;;;;;24.81;50.39;101143.66;5017073;28;20030;-61
2021/08/19 05:36:36;;;;;;;7.35;3.80;;;;;;;24.81;50.02;101150.00;5017082;28;20030;-61
2021/08/19 05:39:03;;;;;;;4.30;3.45;;;;;;;24.70;50.69;101136.06;5017238;28;20093;-61
2021/08/19 05:41:28;;;;;;;7.75;3.08;;;;;;;24.80;50.42;101140.09;5017171;28;20390;-61
2021/08/19 05:43:54;;;;;;;6.30;3.47;;;;;;;24.78;50.38;101142.16;5015963;28;20032;-61
2021/08/19 05:46:19;;;;;;;6.05;3.10;;;;;;;24.80;50.26;101136.50;5015652;28;20119;-61
2021/08/19 05:48:45;;;;;;;3.97;3.03;;;;;;;24.85;50.37;101145.75;5017384;28;20065;-61
2021/08/19 05:51:11;;;;;;;6.38;3.20;;;;;;;24.85;49.99;101156.72;5017080;28;20042;-61
2021/08/19 05:53:37;;;;;;;6.72;3.35;;;;;;;24.87;50.49;101154.59;5017039;28;20471;-63
2021/08/19 05:56:02;;;;;;;8.80;3.30;;;;;;;24.87;50.35;101146.38;5016909;28;20030;-61
2021/08/19 05:58:28;;;;;;;6.07;3.78;;;;;;;24.89;50.20;101147.03;5017223;28;20034;-61
2021/08/19 06:00:53;;;;;;;10.27;3.33;;;;;;;24.93;50.21;101143.84;5016749;28;20025;-61
2021/08/19 06:03:22;;;;;;;10.85;3.55;;;;;;;24.97;50.58;101156.06;5016821;28;20022;-61
2021/08/19 06:05:49;;;;;;;4.50;2.95;;;;;;;24.97;50.57;101156.91;5016746;28;20046;-61
2021/08/19 06:08:15;;;;;;;7.38;3.10;;;;;;;25.01;50.01;101154.59;5016141;28;20101;-61
2021/08/19 06:10:40;;;;;;;7.15;2.92;;;;;;;24.99;50.01;101156.69;5016771;28;20044;-61
2021/08/19 06:13:06;;;;;;;7.65;2.92;;;;;;;25.07;50.47;101160.03;4999386;28;20556;-61
2021/08/19 06:15:31;;;;;;;7.75;3.60;;;;;;;25.11;50.16;101160.44;5016418;28;20026;-61
2021/08/19 06:17:57;;;;;;;6.30;3.28;;;;;;;25.13;49.71;101156.44;5015096;28;20022;-61
2021/08/19 06:20:22;;;;;;;5.13;2.92;;;;;;;25.16;49.87;101157.88;5016480;28;20030;-61
2021/08/19 06:22:48;;;;;;;8.95;3.45;;;;;;;25.16;49.70;101149.66;5014834;28;20095;-61
2021/08/19 06:25:13;;;;;;;4.68;3.20;;;;;;;25.20;50.04;101164.63;5016465;28;20030;-62
2021/08/19 06:27:39;;;;;;;6.00;3.80;;;;;;;25.16;49.85;101146.91;5016453;28;20026;-61
2021/08/19 06:30:05;;;;;;;6.15;3.38;;;;;;;25.18;50.13;101158.53;5016032;28;20377;-62
2021/08/19 06:32:31;;;;;;;8.50;3.38;;;;;;;25.20;49.63;101159.16;5015824;28;20118;-61
2021/08/19 06:34:56;;;;;;;7.78;3.20;;;;;;;25.25;49.74;101167.56;5015078;28;20116;-61
2021/08/19 06:37:21;;;;;;;7.43;3.30;;;;;;;25.27;49.97;101154.47;5016010;28;20105;-61
2021/08/19 06:39:47;;;;;;;5.32;3.17;;;;;;;25.29;49.82;101166.09;5015924;28;20060;-61
2021/08/19 06:42:12;;;;;;;5.80;3.25;;;;;;;25.27;49.77;101162.69;5014805;28;20478;-61
2021/08/19 06:44:38;;;;;;;8.05;3.95;;;;;;;25.25;50.00;101184.03;5016010;28;20030;-61
2021/08/19 06:47:03;;;;;;;9.63;3.25;;;;;;;25.27;49.53;101168.19;5016024;28;20030;-61
2021/08/19 06:49:29;;;;;;;9.93;3.35;;;;;;;25.29;49.62;101168.84;5014798;28;20029;-61
2021/08/19 06:51:54;;;;;;;5.82;3.75;;;;;;;25.31;49.79;101161.22;5015830;28;20037;-61
2021/08/19 06:54:20;;;;;;;5.00;2.97;;;;;;;25.30;49.43;101174.09;5015010;28;20061;-60
2021/08/19 06:56:45;;;;;;;7.68;3.83;;;;;;;25.34;49.89;101177.25;5014198;28;20034;-61
2021/08/19 06:59:10;;;;;;;6.43;2.85;;;;;;;25.36;49.34;101184.19;5016090;28;20026;-61
2021/08/19 07:01:36;;;;;;;4.43;3.28;;;;;;;25.36;49.67;101186.09;5015447;28;20117;-61
2021/08/19 07:04:01;;;;;;;5.43;3.65;;;;;;;25.37;49.88;101182.31;5016054;28;20060;-61
2021/08/19 07:06:26;;;;;;;5.82;3.55;;;;;;;25.39;49.49;101182.91;5015297;28;20100;-61
2021/08/19 07:08:52;;;;;;;8.13;3.90;;;;;;;25.42;48.96;101185.22;5015843;28;20029;-61
2021/08/19 07:11:17;;;;;;;7.32;3.75;;;;;;;25.49;49.58;101175.09;5015733;28;20029;-62
2021/08/19 07:13:42;;;;;;;12.02;3.88;;;;;;;25.58;49.19;101176.53;5015522;28;20410;-61
2021/08/19 07:16:08;;;;;;;7.75;3.90;;;;;;;25.65;48.74;101180.09;5014558;28;20033;-61
2021/08/19 07:18:33;;;;;;;5.55;3.13;;;;;;;25.71;48.69;101179.19;5015530;28;20116;-61
2021/08/19 07:20:59;;;;;;;6.53;3.28;;;;;;;25.73;48.94;101176.25;5015755;28;20052;-61
2021/08/19 07:23:24;;;;;;;6.20;3.45;;;;;;;25.70;48.58;101188.50;5015860;28;20431;-62
2021/08/19 07:25:50;;;;;;;9.18;3.45;;;;;;;25.64;48.80;101172.06;5015160;28;20037;-61
2021/08/19 07:28:16;;;;;;;6.15;3.13;;;;;;;25.69;49.14;101191.44;5014002;28;20537;-61
2021/08/19 07:30:41;;;;;;;4.85;2.95;;;;;;;25.70;48.91;101185.75;5015342;28;20022;-61
2021/08/19 07:33:07;;;;;;;7.22;3.05;;;;;;;25.75;48.32;101183.19;5015230;28;20034;-61
2021/08/19 07:35:32;;;;;;;4.43;2.78;;;;;;;25.80;48.42;101188.88;5014333;28;20121;-61
2021/08/19 07:37:59;;;;;;;6.55;3.25;;;;;;;25.86;48.25;101189.88;5014906;28;20073;-61
2021/08/19 07:40:27;;;;;;;7.13;3.03;;;;;;;25.89;48.55;101195.78;5014963;28;20104;-62
2021/08/19 07:42:54;;;;;;;4.82;3.47;;;;;;;25.87;48.14;101191.56;5015044;28;20022;-61
2021/08/19 07:45:20;;;;;;;5.03;3.15;;;;;;;25.92;48.27;101191.75;5014706;28;20040;-62
2021/08/19 07:47:46;;;;;;;4.93;3.17;;;;;;;25.94;48.14;101189.63;5013949;28;20030;-61
2021/08/19 07:50:11;;;;;;;5.72;3.05;;;;;;;26.02;47.98;101181.97;5015019;28;20030;-61
2021/08/19 07:52:38;;;;;;;4.75;2.92;;;;;;;26.09;47.84;101184.69;5014875;28;20065;-61
2021/08/19 07:55:08;;;;;;;8.85;2.97;;;;;;;26.22;48.15;101190.09;5014869;28;20021;-62
2021/08/19 07:57:45;;;;;;;4.00;3.15;;;;;;;26.28;47.69;101191.09;5014917;28;20092;-61
2021/08/19 08:00:11;;;;;;;6.07;2.53;;;;;;;26.30;47.85;101194.50;5014864;28;20429;-61
2021/08/19 08:02:36;;;;;;;3.95;2.67;;;;;;;26.38;47.56;101188.72;5014553;28;20029;-61
2021/08/19 08:05:02;;;;;;;5.88;2.45;;;;;;;26.44;47.51;101179.56;5013576;28;20048;-61
2021/08/19 08:07:29;;;;;;;5.15;2.30;;;;;;;26.37;47.70;101170.53;5014724;28;20056;-61
2021/08/19 08:09:54;;;;;;;4.30;2.05;;;;;;;26.47;47.67;101187.34;5014681;28;20109;-61
2021/08/19 08:12:20;;;;;;;6.65;2.72;;;;;;;26.44;47.56;101185.06;5014626;28;20120;-61
2021/08/19 08:14:45;;;;;;;5.28;2.33;;;;;;;26.40;47.40;101189.34;5014344;28;20061;-62
2021/08/19 08:17:10;;;;;;;6.40;2.45;;;;;;;26.36;47.14;101182.59;5014560;28;20025;-61
2021/08/19 08:19:37;;;;;;;3.63;2.10;;;;;;;26.35;47.42;101186.41;5014561;28;20095;-61
2021/08/19 08:22:03;;;;;;;5.15;1.92;;;;;;;26.45;47.12;101197.72;5014470;28;20092;-62
2021/08/19 08:24:28;;;;;;;6.95;2.30;;;;;;;26.45;47.22;101195.00;5014539;28;20466;-61
2021/08/19 08:26:54;;;;;;;4.15;2.30;;;;;;;26.52;47.48;101198.53;5014152;28;20036;-61
2021/08/19 08:29:20;;;;;;;5.70;2.42;;;;;;;26.56;47.65;101199.75;5014395;28;20072;-61
2021/08/19 08:31:45;;;;;;;6.53;2.28;;;;;;;26.57;46.89;101202.28;5014335;28;20028;-62
2021/08/19 08:34:11;;;;;;;3.80;1.58;;;;;;;26.60;47.25;101201.00;5014358;28;20026;-61
2021/08/19 08:36:37;;;;;;;2.83;1.90;;;;;;;26.59;46.88;101202.91;5014451;28;20463;-61
2021/08/19 08:39:04;;;;;;;7.50;2.05;;;;;;;26.60;47.34;101206.50;5013948;28;20045;-61
2021/08/19 08:41:31;;;;;;;2.00;1.27;;;;;;;26.58;46.54;101208.59;5012679;28;20037;-62
2021/08/19 08:43:56;;;;;;;2.40;1.60;;;;;;;26.59;47.38;101213.06;5012677;28;20576;-61
2021/08/19 08:46:23;;;;;;;3.20;1.80;;;;;;;26.56;46.82;101208.00;5012946;28;20029;-61
2021/08/19 08:48:50;;;;;;;4.82;1.92;;;;;;;26.55;47.42;101214.56;5012730;28;20041;-62
2021/08/19 08:51:16;;;;;;;3.90;1.70;;;;;;;26.57;47.42;101215.19;5012629;28;20083;-61
2021/08/19 08:53:42;;;;;;;4.90;1.90;;;;;;;26.57;47.15;101217.94;5014025;28;20113;-61
2021/08/19 08:56:07;;;;;;;5.05;1.90;;;;;;;26.57;47.27;101218.78;5014072;28;20034;-61
2021/08/19 08:58:33;;;;;;;2.97;1.80;;;;;;;26.60;47.18;101220.25;5014411;28;20034;-61
2021/08/19 09:00:58;;;;;;;4.95;2.00;;;;;;;26.60;46.59;101226.56;5013973;28;20022;-61
2021/08/19 09:03:23;;;;;;;4.40;2.53;;;;;;;26.60;46.97;101228.50;5013748;28;20069;-61
2021/08/19 09:05:51;;;;;;;3.55;2.17;;;;;;;26.62;46.75;101231.84;5013514;28;20426;-61
2021/08/19 09:08:18;;;;;;;4.15;1.90;;;;;;;26.61;46.93;101230.16;5014286;28;20040;-61
2021/08/19 09:10:45;;;;;;;3.45;2.30;;;;;;;26.65;47.12;101231.41;5014257;28;20030;-61
2021/08/19 09:13:15;;;;;;;4.47;1.75;;;;;;;26.66;46.78;101235.84;5014076;28;20026;-61
2021/08/19 09:15:41;;;;;;;2.85;1.70;;;;;;;26.63;46.85;101228.03;5013867;28;20109;-61
2021/08/19 09:18:06;;;;;;;5.40;2.05;;;;;;;26.56;46.74;101235.47;5013628;28;20398;-61
2021/08/19 09:20:42;;;;;;;4.53;1.95;;;;;;;26.51;47.29;101235.31;5012343;28;20041;-62
2021/08/19 09:23:12;;;;;;;3.13;2.10;;;;;;;26.46;46.75;101235.16;5013432;28;20026;-62
2021/08/19 09:25:39;;;;;;;4.40;2.00;;;;;;;26.38;46.60;101232.69;5013188;28;20084;-61
2021/08/19 09:28:14;;;;;;;3.85;1.77;;;;;;;26.32;46.83;101226.19;5013795;28;20040;-61
2021/08/19 09:30:42;;;;;;;2.67;1.88;;;;;;;26.30;47.07;101232.97;5013475;28;20026;-62
2021/08/19 09:33:09;;;;;;;2.88;2.15;;;;;;;26.29;47.30;101242.25;5013658;28;20068;-61
2021/08/19 09:35:35;;;;;;;5.72;2.58;;;;;;;26.27;47.31;101238.91;5013511;28;20076;-61
2021/08/19 09:38:12;;;;;;;2.70;2.22;;;;;;;26.27;47.56;101230.66;5013712;28;20034;-62
2021/08/19 09:40:38;;;;;;;5.82;2.50;;;;;;;26.29;47.31;101242.25;5013954;28;20113;-61
2021/08/19 09:43:03;;;;;;;5.20;2.35;;;;;;;26.31;47.18;101240.13;5012319;28;20049;-62
2021/08/19 09:45:29;;;;;;;3.80;2.03;;;;;;;26.49;46.30;101238.28;4995733;28;20410;-61
2021/08/19 09:48:11;;;;;;;5.22;2.85;;;;;;;26.68;46.68;101235.59;5012434;28;20112;-61
2021/08/19 09:50:37;;;;;;;4.10;2.55;;;;;;;26.71;46.49;101229.66;5013330;28;20099;-61
2021/08/19 09:53:23;;;;;;;2.95;2.10;;;;;;;26.71;46.29;101229.66;5013169;28;20034;-61
2021/08/19 09:55:50;;;;;;;4.43;2.22;;;;;;;26.67;46.92;101229.25;5013539;28;20030;-62
2021/08/19 09:58:31;;;;;;;2.72;1.90;;;;;;;26.65;46.98;101231.41;5014221;28;20044;-61
2021/08/19 10:00:56;;;;;;;2.60;1.65;;;;;;;26.63;46.55;101228.03;5015853;28;20037;-61
2021/08/19 10:03:22;;;;;;;3.40;2.30;;;;;;;26.67;46.74;101236.66;5017129;28;20382;-61
2021/08/19 10:05:47;;;;;;;3.42;1.92;;;;;;;26.71;46.21;101235.16;5016541;28;20061;-61
2021/08/19 10:08:13;;;;;;;2.53;1.63;;;;;;;26.89;46.57;101227.81;5017210;28;20132;-61
2021/08/19 10:10:42;;;;;;;4.90;2.00;;;;;;;27.05;46.47;101231.91;5015623;28;20100;-61
2021/08/19 10:13:11;;;;;;;3.15;1.65;;;;;;;27.13;46.43;101224.19;5016541;28;20033;-61
2021/08/19 10:15:36;;;;;;;3.33;1.48;;;;;;;27.13;46.27;101224.19;5016789;28;20092;-61
2021/08/19 10:18:02;;;;;;;1.48;1.20;;;;;;;27.08;45.43;101228.72;5017003;28;20466;-62
2021/08/19 10:20:33;;;;;;;2.63;1.70;;;;;;;27.06;46.21;101226.16;5015217;28;20370;-61
2021/08/19 10:23:00;;;;;;;3.92;1.73;;;;;;;27.09;46.45;101222.13;5016866;28;20026;-62
2021/08/19 10:25:26;;;;;;;4.40;1.70;;;;;;;27.20;45.85;101218.59;5015179;28;20029;-61
2021/08/19 10:28:24;;;;;;;10.25;2.00;;;;;;;27.30;46.08;101220.84;5016559;28;20040;-61
2021/08/19 10:30:59;;;;;;;1.95;1.45;;;;;;;27.28;45.24;101222.94;4993982;28;20467;-61
2021/08/19 10:33:36;;;;;;;3.30;1.70;;;;;;;27.25;45.73;101221.50;5016813;28;20018;-61
2021/08/19 10:36:11;;;;;;;3.80;1.90;;;;;;;27.20;46.04;101218.59;5016412;28;20041;-62
2021/08/19 10:38:43;;;;;;;1.77;1.45;;;;;;;27.18;45.72;101215.25;5016482;28;20025;-61
2021/08/19 10:41:30;;;;;;;1.10;1.00;;;;;;;27.08;45.35;101226.75;5016071;28;20081;-62
2021/08/19 10:44:04;;;;;;;2.05;1.35;;;;;;;26.98;45.64;101233.88;5016318;28;20108;-61
2021/08/19 10:46:42;;;;;;;3.25;1.00;;;;;;;26.89;46.06;101222.31;5015925;28;20022;-61
2021/08/19 10:49:08;;;;;;;3.33;1.10;;;;;;;26.89;45.53;101216.81;5016443;28;20064;-61
2021/08/19 10:51:33;;;;;;;1.95;0.98;;;;;;;26.98;45.65;101212.72;5014938;28;20483;-61
2021/08/19 10:53:59;;;;;;;3.60;1.00;;;;;;;27.17;45.13;101211.66;5015942;28;20022;-61
2021/08/19 10:56:45;;;;;;;5.38;1.40;;;;;;;27.48;44.84;101216.19;5016056;28;20024;-62
2021/08/19 10:59:32;;;;;;;1.60;0.90;;;;;;;27.76;45.04;101218.38;5014445;28;20032;-61
2021/08/19 11:01:59;;;;;;;1.65;0.88;;;;;;;27.91;44.41;101212.44;5015610;28;20022;-61
2021/08/19 11:04:41;;;;;;;1.08;0.60;;;;;;;28.17;44.01;101210.16;5015420;28;20030;-62
2021/08/19 11:07:08;;;;;;;1.15;0.80;;;;;;;28.62;43.84;101210.50;5015574;28;20075;-61
2021/08/19 11:09:34;;;;;;;1.48;0.80;;;;;;;29.06;43.49;101209.13;5015523;28;20037;-61
2021/08/19 11:12:07;;;;;;;0.70;0.43;;;;;;;29.45;42.22;101210.28;5015395;28;20034;-61
2021/08/19 11:14:32;;;;;;;6.13;0.50;;;;;;;30.15;41.21;101202.53;5014526;28;20030;-62
2021/08/19 11:17:01;;;;;;;0.77;0.55;;;;;;;31.08;40.58;101191.69;5015379;28;20025;-61
2021/08/19 11:19:28;;;;;;;0.75;0.50;;;;;;;31.03;40.70;101204.59;5015614;28;20026;-61
2021/08/19 11:21:54;;;;;;;0.88;0.57;;;;;;;30.82;41.00;101200.66;5015853;28;20030;-61